Time;durP1;ratioP1;P1;durP2;ratioP2;P2;SDS_P1;SDS_P2;PMS_P1;PMS_P2;Temp;Humidity;BMP_temperature;BMP_pressure;BME280_temperature;BME280_humidity;BME280_pressure;Samples;Min_cycle;Max_cycle;Signal;HPM_P1;HPM_P2
2022/09/20 00:01:02;;;;;;;0.45;0.20;;;;;;;;;;5035755;28;20040;-79
2022/09/20 00:03:28;;;;;;;0.57;0.13;;;;;;;;;;5035911;28;20073;-78
2022/09/20 00:05:54;;;;;;;0.30;0.20;;;;;;;;;;5035732;28;20038;-77
2022/09/20 00:08:20;;;;;;;0.45;0.13;;;;;;;;;;5035749;28;20511;-78
2022/09/20 00:10:46;;;;;;;0.30;0.20;;;;;;;;;;5035705;28;20045;-78
2022/09/20 00:13:13;;;;;;;0.43;0.20;;;;;;;;;;5035633;28;20033;-78
2022/09/20 00:15:41;;;;;;;0.32;0.10;;;;;;;;;;5035753;28;20053;-77
2022/09/20 00:18:07;;;;;;;0.55;0.20;;;;;;;;;;5036006;28;20067;-77
2022/09/20 00:20:34;;;;;;;0.50;0.15;;;;;;;;;;5035632;28;20392;-77
2022/09/20 00:23:00;;;;;;;0.43;0.10;;;;;;;;;;5035101;28;20048;-77
2022/09/20 00:25:26;;;;;;;0.30;0.10;;;;;;;;;;5035515;28;20076;-78
2022/09/20 00:27:52;;;;;;;0.30;0.20;;;;;;;;;;5035264;28;20026;-78
2022/09/20 00:30:18;;;;;;;1.52;0.30;;;;;;;;;;5035379;28;20061;-78
2022/09/20 00:32:44;;;;;;;0.40;0.13;;;;;;;;;;5035283;28;20500;-78
2022/09/20 00:35:10;;;;;;;1.13;0.10;;;;;;;;;;5035172;28;20494;-78
2022/09/20 00:37:38;;;;;;;1.10;0.20;;;;;;;;;;5035290;28;20476;-77
2022/09/20 00:40:05;;;;;;;0.38;0.10;;;;;;;;;;5035048;28;20476;-77
2022/09/20 00:42:31;;;;;;;0.20;0.10;;;;;;;;;;5034932;28;20404;-77
2022/09/20 00:45:20;;;;;;;0.70;0.55;;;;;;;;;;5034934;28;20037;-79
2022/09/20 00:47:52;;;;;;;0.25;0.10;;;;;;;;;;5027288;28;20057;-78
2022/09/20 00:50:37;;;;;;;0.20;0.10;;;;;;;;;;5034915;28;20033;-76
2022/09/20 00:53:03;;;;;;;;;;;;;;;;;;5035437;28;20481;-78
2022/09/20 00:55:29;;;;;;;1.73;0.20;;;;;;;;;;5034635;28;19915;-78
2022/09/20 00:57:55;;;;;;;0.25;0.10;;;;;;;;;;5034616;28;20033;-77
2022/09/20 01:00:22;;;;;;;0.40;0.20;;;;;;;;;;5034041;28;20041;-77
2022/09/20 01:02:50;;;;;;;0.20;0.10;;;;;;;;;;5034763;28;20111;-78
2022/09/20 01:05:17;;;;;;;0.60;0.30;;;;;;;;;;5034580;28;20029;-78
2022/09/20 01:07:43;;;;;;;0.40;0.15;;;;;;;;;;5034779;28;20551;-78
2022/09/20 01:10:09;;;;;;;0.75;0.30;;;;;;;;;;5034632;28;20033;-79
2022/09/20 01:12:39;;;;;;;0.70;0.20;;;;;;;;;;5034476;28;20056;-77
2022/09/20 01:15:05;;;;;;;0.85;0.20;;;;;;;;;;5034539;28;20056;-78
2022/09/20 01:17:33;;;;;;;0.20;0.10;;;;;;;;;;5034160;28;20080;-79
2022/09/20 01:20:05;;;;;;;1.48;0.47;;;;;;;;;;5034499;28;20041;-78
2022/09/20 01:22:50;;;;;;;0.30;0.10;;;;;;;;;;5034429;28;20056;-79
2022/09/20 01:25:31;;;;;;;0.35;0.20;;;;;;;;;;5034163;28;20121;-76
2022/09/20 01:27:58;;;;;;;0.60;0.20;;;;;;;;;;5034111;28;20060;-76
2022/09/20 01:30:25;;;;;;;0.75;0.20;;;;;;;;;;5034271;28;20520;-79
2022/09/20 01:33:00;;;;;;;0.57;0.40;;;;;;;;;;5033981;28;20096;-78
2022/09/20 01:35:27;;;;;;;1.25;0.10;;;;;;;;;;5034255;28;20029;-77
2022/09/20 01:38:12;;;;;;;0.43;0.10;;;;;;;;;;5033929;28;20028;-77
2022/09/20 01:40:45;;;;;;;0.50;0.20;;;;;;;;;;5024441;28;20033;-79
2022/09/20 01:43:33;;;;;;;0.50;0.30;;;;;;;;;;5034016;28;20480;-77
2022/09/20 01:46:06;;;;;;;0.38;0.20;;;;;;;;;;5033954;28;20117;-78
2022/09/20 01:48:32;;;;;;;0.45;0.10;;;;;;;;;;5033869;28;20037;-78
2022/09/20 01:50:59;;;;;;;0.57;0.20;;;;;;;;;;5033965;28;20030;-77
2022/09/20 01:53:28;;;;;;;0.20;0.17;;;;;;;;;;5033815;28;20025;-77
2022/09/20 01:55:54;;;;;;;1.23;0.10;;;;;;;;;;5033781;28;20030;-78
2022/09/20 01:58:38;;;;;;;0.70;0.20;;;;;;;;;;5033632;28;20041;-78
2022/09/20 02:01:04;;;;;;;;;;;;;;;;;;5034123;28;20030;-79
2022/09/20 02:03:36;;;;;;;1.55;0.28;;;;;;;;;;5033670;28;20261;-77
2022/09/20 02:06:22;;;;;;;0.70;0.20;;;;;;;;;;5033557;28;20056;-78
2022/09/20 02:08:48;;;;;;;0.22;0.10;;;;;;;;;;5033411;28;20047;-77
2022/09/20 02:11:15;;;;;;;0.32;0.10;;;;;;;;;;5032598;28;20026;-78
2022/09/20 02:13:41;;;;;;;0.10;0.10;;;;;;;;;;5033122;28;20034;-78
2022/09/20 02:16:19;;;;;;;1.40;0.20;;;;;;;;;;5028149;28;20030;-78
2022/09/20 02:19:08;;;;;;;0.30;0.10;;;;;;;;;;5033347;28;20029;-78
2022/09/20 02:21:40;;;;;;;1.23;0.30;;;;;;;;;;5025302;28;20060;-78
2022/09/20 02:24:09;;;;;;;0.22;0.10;;;;;;;;;;5033131;28;20435;-78
2022/09/20 02:26:54;;;;;;;1.00;0.20;;;;;;;;;;5033205;28;20029;-77
2022/09/20 02:29:20;;;;;;;;;;;;;;;;;;5030800;28;20400;-78
2022/09/20 02:31:55;;;;;;;0.43;0.28;;;;;;;;;;5032876;28;19908;-79
2022/09/20 02:34:30;;;;;;;0.40;0.17;;;;;;;;;;5033068;28;20476;-77
2022/09/20 02:37:06;;;;;;;0.17;0.10;;;;;;;;;;5033123;28;20041;-77
2022/09/20 02:39:35;;;;;;;0.30;0.20;;;;;;;;;;5032755;28;20408;-78
2022/09/20 02:42:08;;;;;;;0.88;0.63;;;;;;;;;;5032772;28;20030;-76
2022/09/20 02:44:34;;;;;;;0.55;0.40;;;;;;;;;;5014981;28;20033;-78
2022/09/20 02:47:01;;;;;;;0.93;0.32;;;;;;;;;;5032842;28;20041;-77
2022/09/20 02:49:31;;;;;;;0.55;0.30;;;;;;;;;;5032534;28;20520;-78
2022/09/20 02:52:00;;;;;;;0.75;0.75;;;;;;;;;;5032656;28;20108;-76
2022/09/20 02:54:26;;;;;;;0.70;0.20;;;;;;;;;;5032294;28;20037;-78
2022/09/20 02:57:00;;;;;;;0.45;0.20;;;;;;;;;;5032750;28;20033;-77
2022/09/20 02:59:31;;;;;;;1.42;0.28;;;;;;;;;;5032188;28;20026;-78
2022/09/20 03:02:04;;;;;;;0.90;0.20;;;;;;;;;;5032524;28;20037;-77
2022/09/20 03:04:48;;;;;;;0.52;0.30;;;;;;;;;;5032531;28;20026;-77
2022/09/20 03:07:14;;;;;;;;;;;;;;;;;;5032914;28;20032;-77
2022/09/20 03:09:41;;;;;;;1.25;0.20;;;;;;;;;;5032438;28;19905;-78
2022/09/20 03:12:20;;;;;;;1.33;0.30;;;;;;;;;;5032359;28;20029;-78
2022/09/20 03:15:04;;;;;;;0.50;0.38;;;;;;;;;;5032152;28;20037;-77
2022/09/20 03:17:41;;;;;;;1.08;0.50;;;;;;;;;;5032143;28;20034;-77
2022/09/20 03:20:07;;;;;;;0.20;0.15;;;;;;;;;;5032388;28;20097;-77
2022/09/20 03:22:36;;;;;;;0.60;0.30;;;;;;;;;;5031383;28;20045;-78
2022/09/20 03:25:21;;;;;;;0.70;0.30;;;;;;;;;;5032298;28;20039;-78
2022/09/20 03:27:47;;;;;;;;;;;;;;;;;;5032821;28;20030;-78
2022/09/20 03:30:19;;;;;;;0.65;0.20;;;;;;;;;;5032061;28;19931;-78
2022/09/20 03:32:45;;;;;;;0.68;0.20;;;;;;;;;;5032098;28;20515;-77
2022/09/20 03:35:30;;;;;;;0.70;0.30;;;;;;;;;;5032424;28;20037;-77
2022/09/20 03:37:56;;;;;;;;;;;;;;;;;;5032484;28;20034;-79
2022/09/20 03:40:40;;;;;;;1.65;0.20;;;;;;;;;;5032316;28;19928;-78
2022/09/20 03:43:06;;;;;;;;;;;;;;;;;;5032389;28;20091;-77
2022/09/20 03:45:32;;;;;;;0.70;0.40;;;;;;;;;;5032075;28;20236;-78
2022/09/20 03:47:58;;;;;;;0.73;0.20;;;;;;;;;;5032327;28;20030;-78
2022/09/20 03:50:43;;;;;;;0.77;0.25;;;;;;;;;;5032056;28;20064;-78
2022/09/20 03:53:09;;;;;;;;;;;;;;;;;;5032469;28;20041;-78
2022/09/20 03:55:38;;;;;;;0.80;0.38;;;;;;;;;;5031559;28;20279;-77
2022/09/20 03:58:23;;;;;;;6.25;3.58;;;;;;;;;;5032064;28;20448;-79
2022/09/20 04:00:49;;;;;;;;;;;;;;;;;;5032018;28;20112;-79
2022/09/20 04:03:24;;;;;;;0.73;0.25;;;;;;;;;;5031561;28;20474;-78
2022/09/20 04:06:05;;;;;;;4.68;0.77;;;;;;;;;;5031723;28;20030;-78
2022/09/20 04:08:43;;;;;;;0.30;0.30;;;;;;;;;;5031739;28;20045;-79
2022/09/20 04:11:25;;;;;;;0.75;0.28;;;;;;;;;;5031765;28;20540;-78
2022/09/20 04:13:58;;;;;;;1.20;0.30;;;;;;;;;;5031256;28;20045;-77
2022/09/20 04:16:30;;;;;;;0.43;0.30;;;;;;;;;;5031456;28;20056;-78
2022/09/20 04:19:16;;;;;;;0.52;0.30;;;;;;;;;;5031594;28;20037;-78
2022/09/20 04:21:55;;;;;;;1.38;0.40;;;;;;;;;;5031423;28;20099;-78
2022/09/20 04:24:27;;;;;;;1.48;0.30;;;;;;;;;;5031146;28;20099;-79
2022/09/20 04:27:14;;;;;;;0.55;0.22;;;;;;;;;;5030928;28;20033;-78
2022/09/20 04:29:57;;;;;;;0.50;0.20;;;;;;;;;;5031047;28;20075;-79
2022/09/20 04:32:42;;;;;;;0.88;0.40;;;;;;;;;;5031411;28;20044;-78
2022/09/20 04:38:30;;;;;;;1.35;0.30;;;;;;;;;;5034889;28;20052;-80
2022/09/20 04:40:59;;;;;;;;;;;;;;;;;;5041887;28;20037;-80
2022/09/20 04:43:30;;;;;;;0.50;0.22;;;;;;;;;;5025991;28;19913;-80
2022/09/20 04:46:03;;;;;;;0.65;0.30;;;;;;;;;;5015541;28;20049;-79
2022/09/20 04:48:48;;;;;;;0.68;0.30;;;;;;;;;;5014876;28;20040;-80
2022/09/20 04:51:33;;;;;;;0.47;0.20;;;;;;;;;;5014961;28;20474;-84
2022/09/20 04:53:59;;;;;;;;;;;;;;;;;;5015304;28;20042;-81
2022/09/20 04:56:28;;;;;;;0.75;0.50;;;;;;;;;;5015159;28;20388;-80
2022/09/20 04:58:54;;;;;;;0.50;0.35;;;;;;;;;;5014956;28;20034;-80
2022/09/20 05:01:35;;;;;;;1.00;0.45;;;;;;;;;;5014811;28;20030;-80
2022/09/20 05:04:10;;;;;;;1.45;0.40;;;;;;;;;;5014990;28;20388;-79
2022/09/20 05:06:55;;;;;;;0.70;0.20;;;;;;;;;;5015059;28;20041;-81
2022/09/20 05:09:21;;;;;;;;;;;;;;;;;;5015480;28;20034;-78
2022/09/20 05:11:54;;;;;;;2.20;0.40;;;;;;;;;;5014993;28;19912;-79
2022/09/20 05:14:35;;;;;;;2.88;1.10;;;;;;;;;;5014547;28;20038;-79
2022/09/20 05:17:19;;;;;;;1.20;0.63;;;;;;;;;;5014933;28;20437;-79
2022/09/20 05:19:47;;;;;;;;;;;;;;;;;;5015118;28;20041;-81
2022/09/20 05:22:31;;;;;;;0.60;0.30;;;;;;;;;;5014656;28;19939;-78
2022/09/20 05:25:14;;;;;;;3.35;1.58;;;;;;;;;;5014437;28;20401;-79
2022/09/20 05:27:50;;;;;;;0.65;0.43;;;;;;;;;;5014248;28;20033;-80
2022/09/20 05:30:36;;;;;;;0.50;0.40;;;;;;;;;;5025563;28;20060;-80
2022/09/20 05:33:06;;;;;;;1.48;0.30;;;;;;;;;;5030899;28;20033;-81
2022/09/20 05:35:42;;;;;;;1.40;0.50;;;;;;;;;;5031226;28;20049;-77
2022/09/20 05:38:31;;;;;;;0.40;0.30;;;;;;;;;;5031492;28;20435;-79
2022/09/20 05:41:17;;;;;;;0.60;0.30;;;;;;;;;;5039637;28;20033;-78
2022/09/20 05:44:02;;;;;;;1.98;0.43;;;;;;;;;;5026982;28;20092;-80
2022/09/20 05:46:39;;;;;;;1.00;0.55;;;;;;;;;;5030277;28;20033;-78
2022/09/20 05:49:17;;;;;;;0.90;0.30;;;;;;;;;;5031352;28;20045;-76
2022/09/20 05:51:49;;;;;;;0.70;0.45;;;;;;;;;;5030113;28;20473;-77
2022/09/20 05:54:29;;;;;;;1.95;0.43;;;;;;;;;;5033260;28;20388;-77
2022/09/20 05:56:55;;;;;;;1.25;0.50;;;;;;;;;;5040350;28;20423;-78
2022/09/20 05:59:21;;;;;;;0.70;0.40;;;;;;;;;;5012632;28;20030;-77
2022/09/20 06:01:47;;;;;;;5.15;3.97;;;;;;;;;;5021902;28;20488;-78
2022/09/20 06:04:32;;;;;;;0.90;0.50;;;;;;;;;;5028784;28;20047;-79
2022/09/20 06:06:58;;;;;;;;;;;;;;;;;;5021375;28;20035;-79
2022/09/20 06:09:27;;;;;;;1.33;0.70;;;;;;;;;;5030409;28;19932;-77
2022/09/20 06:12:12;;;;;;;1.58;0.65;;;;;;;;;;5032268;28;20056;-77
2022/09/20 06:15:00;;;;;;;1.48;0.47;;;;;;;;;;5032193;28;20080;-77
2022/09/20 06:17:32;;;;;;;2.72;0.88;;;;;;;;;;5030470;28;20040;-78
2022/09/20 06:20:17;;;;;;;2.17;0.95;;;;;;;;;;5032192;28;20633;-78
2022/09/20 06:22:43;;;;;;;;;;;;;;;;;;5029991;28;20457;-79
2022/09/20 06:25:09;;;;;;;3.15;0.85;;;;;;;;;;5032248;28;19916;-79
2022/09/20 06:27:36;;;;;;;0.90;0.60;;;;;;;;;;5026852;28;20120;-79
2022/09/20 06:30:04;;;;;;;0.93;0.50;;;;;;;;;;5028245;28;20041;-77
2022/09/20 06:32:32;;;;;;;1.02;0.73;;;;;;;;;;5030528;28;20500;-79
2022/09/20 06:35:00;;;;;;;0.95;0.30;;;;;;;;;;5031836;28;20048;-77
2022/09/20 06:43:07;;;;;;;0.80;0.30;;;;;;;;;;5028616;28;20041;-78
2022/09/20 06:45:33;;;;;;;0.32;0.30;;;;;;;;;;5031359;28;20037;-78
2022/09/20 06:48:01;;;;;;;1.42;0.38;;;;;;;;;;5016931;28;20038;-79
2022/09/20 06:50:27;;;;;;;0.68;0.40;;;;;;;;;;5028598;28;20033;-81
2022/09/20 06:52:54;;;;;;;0.95;0.35;;;;;;;;;;5037773;28;20034;-81
2022/09/20 06:55:28;;;;;;;1.45;0.30;;;;;;;;;;5025326;28;20057;-82
2022/09/20 06:57:55;;;;;;;0.35;0.25;;;;;;;;;;5036649;28;20766;-79
2022/09/20 07:00:25;;;;;;;0.57;0.20;;;;;;;;;;5035478;28;20496;-81
2022/09/20 07:02:51;;;;;;;0.63;0.30;;;;;;;;;;5027194;28;20548;-78
2022/09/20 07:05:21;;;;;;;0.38;0.20;;;;;;;;;;5033055;28;20064;-80
2022/09/20 07:07:47;;;;;;;1.20;0.30;;;;;;;;;;5034921;28;20029;-81
2022/09/20 07:10:21;;;;;;;2.45;0.43;;;;;;;;;;5030318;28;20354;-80
2022/09/20 07:12:59;;;;;;;0.50;0.50;;;;;;;;;;5028186;28;20037;-80
2022/09/20 07:15:29;;;;;;;0.52;0.20;;;;;;;;;;5032249;28;20028;-80
2022/09/20 07:17:55;;;;;;;0.20;0.13;;;;;;;;;;5037423;28;20064;-82
2022/09/20 07:20:22;;;;;;;0.80;0.30;;;;;;;;;;5040349;28;20038;-81
2022/09/20 07:22:52;;;;;;;1.58;0.20;;;;;;;;;;5034567;28;20761;-79
2022/09/20 07:25:18;;;;;;;1.00;0.40;;;;;;;;;;5017607;28;20036;-83
2022/09/20 07:27:45;;;;;;;1.02;0.50;;;;;;;;;;5034426;28;20489;-80
2022/09/20 07:30:11;;;;;;;2.17;1.42;;;;;;;;;;5032625;28;20095;-81
2022/09/20 07:32:39;;;;;;;0.55;0.20;;;;;;;;;;5031960;28;20037;-80
2022/09/20 07:35:12;;;;;;;0.40;0.20;;;;;;;;;;5026833;28;20044;-81
2022/09/20 07:37:41;;;;;;;0.90;0.40;;;;;;;;;;5042981;28;20080;-79
2022/09/20 07:40:08;;;;;;;0.20;0.10;;;;;;;;;;5028617;28;20447;-80
2022/09/20 07:42:34;;;;;;;0.93;0.15;;;;;;;;;;5039988;28;20076;-84
2022/09/20 07:45:01;;;;;;;2.10;0.20;;;;;;;;;;5030233;28;20041;-81
2022/09/20 07:47:30;;;;;;;1.42;0.30;;;;;;;;;;5033440;28;20057;-80
2022/09/20 07:49:57;;;;;;;9.30;8.45;;;;;;;;;;5029697;28;20072;-79
2022/09/20 07:52:23;;;;;;;0.88;0.30;;;;;;;;;;5027485;28;20033;-80
2022/09/20 07:54:49;;;;;;;0.40;0.30;;;;;;;;;;5031272;28;20045;-80
2022/09/20 07:57:16;;;;;;;0.93;0.30;;;;;;;;;;5024612;28;20057;-81
2022/09/20 07:59:42;;;;;;;1.25;0.38;;;;;;;;;;5029275;28;20116;-81
2022/09/20 08:02:15;;;;;;;1.10;0.20;;;;;;;;;;5029523;28;20040;-82
2022/09/20 08:04:41;;;;;;;0.22;0.10;;;;;;;;;;5030530;28;20539;-80
2022/09/20 08:07:08;;;;;;;1.27;0.30;;;;;;;;;;5030389;28;20112;-80
2022/09/20 08:09:34;;;;;;;0.57;0.20;;;;;;;;;;5028570;28;20037;-82
2022/09/20 08:12:06;;;;;;;1.15;0.60;;;;;;;;;;5033614;28;20041;-82
2022/09/20 08:14:38;;;;;;;1.48;0.30;;;;;;;;;;5033347;28;20040;-80
2022/09/20 08:17:09;;;;;;;2.42;0.30;;;;;;;;;;5034307;28;20159;-81
2022/09/20 08:19:38;;;;;;;1.33;0.20;;;;;;;;;;5028281;28;20117;-79
2022/09/20 08:22:09;;;;;;;0.47;0.25;;;;;;;;;;5028269;28;20060;-81
2022/09/20 08:24:38;;;;;;;0.98;0.20;;;;;;;;;;5034535;28;20029;-81
2022/09/20 08:27:05;;;;;;;0.70;0.30;;;;;;;;;;5028770;28;20046;-80
2022/09/20 08:29:31;;;;;;;0.70;0.30;;;;;;;;;;5020442;28;20508;-81
2022/09/20 08:31:59;;;;;;;0.90;0.20;;;;;;;;;;5013783;28;20037;-81
2022/09/20 08:34:26;;;;;;;1.10;0.55;;;;;;;;;;5029672;28;20121;-86
2022/09/20 08:36:55;;;;;;;1.30;0.20;;;;;;;;;;5031083;28;20447;-82
2022/09/20 08:39:31;;;;;;;0.85;0.10;;;;;;;;;;5039365;28;20036;-85
2022/09/20 08:42:11;;;;;;;0.20;0.20;;;;;;;;;;5041921;28;20509;-83
2022/09/20 08:44:49;;;;;;;0.75;0.20;;;;;;;;;;5029559;28;20042;-83
2022/09/20 08:47:34;;;;;;;1.25;0.20;;;;;;;;;;5030766;28;20033;-85
2022/09/20 08:50:02;;;;;;;0.47;0.20;;;;;;;;;;5034588;28;20136;-86
2022/09/20 08:52:32;;;;;;;1.60;0.20;;;;;;;;;;5040881;28;20033;-81
2022/09/20 08:54:58;;;;;;;0.77;0.30;;;;;;;;;;5047319;28;20098;-79
2022/09/20 08:57:30;;;;;;;1.35;0.30;;;;;;;;;;5052549;28;20090;-80
2022/09/20 08:59:57;;;;;;;2.45;0.20;;;;;;;;;;5047424;28;20476;-80
2022/09/20 09:02:24;;;;;;;0.73;0.15;;;;;;;;;;5037745;28;20041;-79
2022/09/20 09:04:52;;;;;;;0.50;0.15;;;;;;;;;;5039525;28;20026;-83
2022/09/20 09:07:20;;;;;;;0.25;0.10;;;;;;;;;;5040377;28;20145;-81
2022/09/20 09:09:48;;;;;;;0.47;0.28;;;;;;;;;;5040300;28;20088;-78
2022/09/20 09:12:32;;;;;;;0.35;0.17;;;;;;;;;;5030875;28;20033;-79
2022/09/20 09:15:15;;;;;;;0.80;0.20;;;;;;;;;;5033301;28;20112;-83
2022/09/20 09:17:41;;;;;;;0.52;0.20;;;;;;;;;;5031710;28;20037;-81
2022/09/20 09:20:13;;;;;;;0.98;0.20;;;;;;;;;;5030330;28;20041;-80
2022/09/20 09:22:44;;;;;;;1.25;0.75;;;;;;;;;;5040941;28;20144;-81
2022/09/20 09:25:16;;;;;;;1.38;0.32;;;;;;;;;;5033061;28;20068;-82
2022/09/20 09:28:02;;;;;;;1.08;0.38;;;;;;;;;;5042141;28;20032;-83
2022/09/20 09:30:30;;;;;;;0.52;0.40;;;;;;;;;;5022782;28;20400;-84
2022/09/20 09:33:14;;;;;;;1.65;0.50;;;;;;;;;;5035925;28;20079;-82
2022/09/20 09:35:41;;;;;;;1.45;0.20;;;;;;;;;;5021819;28;20053;-82
2022/09/20 09:38:25;;;;;;;0.80;0.30;;;;;;;;;;5026826;28;20061;-85
2022/09/20 09:40:53;;;;;;;0.82;0.30;;;;;;;;;;5028027;28;20037;-83
2022/09/20 09:43:23;;;;;;;0.65;0.38;;;;;;;;;;5042008;28;20037;-81
2022/09/20 09:45:49;;;;;;;0.57;0.20;;;;;;;;;;5043151;28;20029;-80
2022/09/20 09:48:20;;;;;;;0.65;0.20;;;;;;;;;;5034199;28;20400;-81
2022/09/20 09:50:47;;;;;;;1.58;0.63;;;;;;;;;;5036804;28;20044;-80
2022/09/20 09:53:15;;;;;;;0.40;0.17;;;;;;;;;;5043640;28;20028;-80
2022/09/20 09:55:44;;;;;;;1.83;0.20;;;;;;;;;;5030159;28;20041;-81
2022/09/20 09:58:21;;;;;;;1.50;0.47;;;;;;;;;;5042701;28;20094;-84
2022/09/20 10:00:48;;;;;;;0.93;0.30;;;;;;;;;;5041260;28;20043;-84
2022/09/20 10:03:25;;;;;;;13.50;4.88;;;;;;;;;;5039115;28;20035;-84
2022/09/20 10:05:54;;;;;;;267.45;90.68;;;;;;;;;;5042482;28;20036;-82
2022/09/20 10:08:25;;;;;;;109.50;40.67;;;;;;;;;;5044855;28;20029;-84
2022/09/20 10:10:56;;;;;;;9.32;2.63;;;;;;;;;;5044919;28;20026;-81
2022/09/20 10:13:22;;;;;;;4.70;1.45;;;;;;;;;;5037044;28;20520;-81
2022/09/20 10:15:54;;;;;;;2.88;0.85;;;;;;;;;;5040526;28;20032;-82
2022/09/20 10:18:39;;;;;;;1.38;0.70;;;;;;;;;;5042456;28;20485;-83
2022/09/20 10:21:06;;;;;;;;;;;;;;;;;;5032804;28;20081;-80
2022/09/20 10:23:51;;;;;;;2.17;0.43;;;;;;;;;;5030336;28;19933;-81
2022/09/20 10:26:39;;;;;;;3.33;1.25;;;;;;;;;;5027524;28;20030;-81
2022/09/20 10:29:07;;;;;;;3.40;1.10;;;;;;;;;;5022417;28;20136;-80
2022/09/20 10:31:43;;;;;;;4.82;1.50;;;;;;;;;;5027985;28;20091;-79
2022/09/20 10:34:27;;;;;;;0.40;0.22;;;;;;;;;;5026240;28;20061;-82
2022/09/20 10:36:57;;;;;;;0.28;0.28;;;;;;;;;;5010887;28;20026;-84
2022/09/20 10:39:29;;;;;;;0.73;0.30;;;;;;;;;;5030609;28;20492;-83
2022/09/20 10:44:40;;;;;;;;;;;;;;;;;;5026909;28;20044;-83
2022/09/20 10:47:06;;;;;;;8.98;7.70;;;;;;;;;;5013305;28;19960;-85
2022/09/20 10:49:50;;;;;;;7.38;6.70;;;;;;;;;;5027145;28;20041;-83
2022/09/20 10:52:30;;;;;;;0.45;0.22;;;;;;;;;;5035464;28;20033;-82
2022/09/20 10:55:17;;;;;;;1.35;0.28;;;;;;;;;;5044694;28;20029;-82
2022/09/20 10:57:53;;;;;;;1.15;0.50;;;;;;;;;;5029315;28;20075;-83
2022/09/20 11:00:39;;;;;;;1.15;0.30;;;;;;;;;;5038212;28;20437;-86
2022/09/20 11:03:23;;;;;;;0.40;0.20;;;;;;;;;;5035995;28;20055;-82
2022/09/20 11:06:16;;;;;;;1.33;0.40;;;;;;;;;;5038456;28;20325;-84
2022/09/20 11:09:01;;;;;;;1.27;0.50;;;;;;;;;;5034028;28;20037;-84
2022/09/20 11:11:34;;;;;;;0.30;0.28;;;;;;;;;;5023583;28;20024;-83
2022/09/20 11:14:00;;;;;;;0.60;0.25;;;;;;;;;;5040051;28;20549;-84
2022/09/20 11:16:39;;;;;;;1.15;0.30;;;;;;;;;;5039355;28;20040;-80
2022/09/20 11:19:30;;;;;;;0.50;0.30;;;;;;;;;;5040213;28;20092;-84
2022/09/20 11:22:10;;;;;;;0.63;0.35;;;;;;;;;;5030094;28;20416;-84
2022/09/20 11:24:55;;;;;;;0.80;0.63;;;;;;;;;;5041277;28;20079;-81
2022/09/20 11:27:44;;;;;;;1.55;0.45;;;;;;;;;;5039622;28;20033;-82
2022/09/20 11:30:17;;;;;;;1.58;0.30;;;;;;;;;;5037417;28;20030;-81
2022/09/20 11:32:49;;;;;;;0.90;0.40;;;;;;;;;;5002237;28;20088;-80
2022/09/20 11:35:25;;;;;;;2.05;0.45;;;;;;;;;;5035553;28;20392;-79
2022/09/20 11:37:57;;;;;;;0.32;0.30;;;;;;;;;;5035904;28;20061;-83
2022/09/20 11:40:28;;;;;;;1.67;0.40;;;;;;;;;;5035549;28;20048;-83
2022/09/20 11:42:56;;;;;;;0.77;0.40;;;;;;;;;;5040891;28;20033;-83
2022/09/20 11:45:23;;;;;;;0.52;0.38;;;;;;;;;;5036069;28;20026;-83
2022/09/20 11:47:51;;;;;;;0.80;0.40;;;;;;;;;;5035614;28;20124;-80
2022/09/20 11:50:37;;;;;;;0.40;0.32;;;;;;;;;;5035234;28;20026;-81
2022/09/20 11:53:03;;;;;;;0.80;0.40;;;;;;;;;;5031523;28;20053;-84
2022/09/20 11:55:48;;;;;;;0.60;0.40;;;;;;;;;;5030513;28;20041;-82
2022/09/20 11:58:17;;;;;;;1.00;0.40;;;;;;;;;;5034639;28;20038;-82
2022/09/20 12:00:45;;;;;;;1.70;0.50;;;;;;;;;;5035130;28;20033;-81
2022/09/20 12:03:30;;;;;;;1.02;0.60;;;;;;;;;;5034121;28;20041;-83
2022/09/20 12:05:57;;;;;;;1.02;0.40;;;;;;;;;;5027444;28;20374;-81
2022/09/20 12:08:30;;;;;;;2.28;0.40;;;;;;;;;;5006233;28;20045;-82
2022/09/20 12:11:00;;;;;;;0.50;0.50;;;;;;;;;;5032775;28;20033;-83
2022/09/20 12:13:26;;;;;;;3.15;0.77;;;;;;;;;;5034326;28;20037;-83
2022/09/20 12:16:11;;;;;;;1.02;0.65;;;;;;;;;;5035456;28;20037;-81
2022/09/20 12:18:46;;;;;;;1.58;0.50;;;;;;;;;;5027007;28;20116;-84
2022/09/20 12:21:15;;;;;;;4.32;1.10;;;;;;;;;;5035419;28;20047;-81
2022/09/20 12:24:00;;;;;;;1.00;0.50;;;;;;;;;;5034789;28;20061;-81
2022/09/20 12:26:26;;;;;;;1.98;0.55;;;;;;;;;;5031629;28;20112;-82
2022/09/20 12:28:59;;;;;;;1.25;0.70;;;;;;;;;;5034498;28;20040;-84
2022/09/20 12:31:30;;;;;;;2.65;0.85;;;;;;;;;;5034525;28;20484;-83
2022/09/20 12:33:59;;;;;;;1.00;0.82;;;;;;;;;;5034990;28;20430;-83
2022/09/20 12:36:34;;;;;;;4.03;0.88;;;;;;;;;;5034157;28;20613;-80
2022/09/20 12:39:01;;;;;;;1.10;0.60;;;;;;;;;;5036945;28;20038;-77
2022/09/20 12:41:27;;;;;;;1.05;0.63;;;;;;;;;;5033525;28;20041;-79
2022/09/20 12:44:02;;;;;;;1.13;0.60;;;;;;;;;;5034409;28;20564;-81
2022/09/20 12:46:33;;;;;;;1.45;0.70;;;;;;;;;;5034765;28;20026;-79
2022/09/20 12:52:49;;;;;;;1.30;0.50;;;;;;;;;;5034739;28;20033;-82
2022/09/20 12:54:52;;;;;;;3.28;0.55;;;;;;;;;;5028159;28;20534;-80
2022/09/20 12:57:27;;;;;;;0.60;0.47;;;;;;;;;;5026141;28;20041;-79
2022/09/20 12:59:57;;;;;;;3.20;0.60;;;;;;;;;;5032497;28;20132;-80
2022/09/20 13:02:43;;;;;;;1.00;0.60;;;;;;;;;;5033155;28;20038;-83
2022/09/20 13:05:30;;;;;;;1.13;0.68;;;;;;;;;;5033525;28;20034;-84
2022/09/20 13:08:00;;;;;;;2.03;0.98;;;;;;;;;;5032797;28;20487;-83
2022/09/20 13:10:29;;;;;;;0.85;0.70;;;;;;;;;;5032788;28;20435;-80
2022/09/20 13:12:58;;;;;;;1.10;0.70;;;;;;;;;;5043964;28;20033;-83
2022/09/20 13:15:24;;;;;;;1.45;1.00;;;;;;;;;;5039800;28;20549;-81
2022/09/20 13:17:52;;;;;;;1.00;0.60;;;;;;;;;;5035932;28;20132;-82
2022/09/20 13:20:24;;;;;;;4.10;1.08;;;;;;;;;;5032117;28;20056;-81
2022/09/20 13:22:52;;;;;;;1.00;0.60;;;;;;;;;;5032818;28;20053;-81
2022/09/20 13:25:20;;;;;;;2.55;0.60;;;;;;;;;;5027724;28;20159;-82
2022/09/20 13:28:05;;;;;;;1.13;0.70;;;;;;;;;;5030911;28;20040;-83
2022/09/20 13:30:31;;;;;;;3.10;0.70;;;;;;;;;;5025085;28;20037;-85
2022/09/20 13:33:13;;;;;;;2.80;0.80;;;;;;;;;;5045848;28;20369;-83
2022/09/20 13:35:40;;;;;;;0.70;0.70;;;;;;;;;;5027792;28;20041;-80
2022/09/20 13:38:08;;;;;;;0.93;0.68;;;;;;;;;;5043386;28;20484;-81
2022/09/20 13:40:51;;;;;;;1.90;0.80;;;;;;;;;;5042756;28;20396;-81
2022/09/20 13:43:23;;;;;;;2.10;0.80;;;;;;;;;;5041617;28;20029;-81
2022/09/20 13:45:52;;;;;;;1.52;0.80;;;;;;;;;;5038005;28;20507;-83
2022/09/20 13:48:18;;;;;;;3.05;1.58;;;;;;;;;;5053099;28;20041;-80
2022/09/20 13:50:44;;;;;;;1.02;0.57;;;;;;;;;;5054154;28;20033;-82
2022/09/20 13:53:15;;;;;;;2.53;0.95;;;;;;;;;;5050845;28;20041;-83
2022/09/20 13:55:42;;;;;;;2.25;0.80;;;;;;;;;;5033842;28;20493;-82
2022/09/20 13:58:23;;;;;;;1.17;0.50;;;;;;;;;;5034174;28;20116;-82
2022/09/20 14:00:51;;;;;;;0.70;0.40;;;;;;;;;;5033773;28;20037;-81
2022/09/20 14:03:19;;;;;;;0.98;0.50;;;;;;;;;;5034131;28;20056;-83
2022/09/20 14:05:50;;;;;;;0.70;0.60;;;;;;;;;;5033467;28;20041;-80
2022/09/20 14:08:37;;;;;;;0.65;0.52;;;;;;;;;;5033452;28;20029;-79
2022/09/20 14:11:19;;;;;;;0.80;0.50;;;;;;;;;;5033583;28;20049;-82
2022/09/20 14:14:04;;;;;;;0.80;0.40;;;;;;;;;;5033588;28;20029;-80
2022/09/20 14:16:29;;;;;;;;;;;;;;;;;;5033560;28;20461;-80
2022/09/20 14:18:57;;;;;;;0.60;0.30;;;;;;;;;;5033280;28;19960;-80
2022/09/20 14:21:24;;;;;;;0.57;0.55;;;;;;;;;;5033323;28;20087;-80
2022/09/20 14:24:00;;;;;;;0.60;0.40;;;;;;;;;;5032636;28;20108;-81
2022/09/20 14:26:32;;;;;;;1.50;0.50;;;;;;;;;;5032877;28;20374;-81
2022/09/20 14:29:18;;;;;;;2.63;0.40;;;;;;;;;;5038735;28;20035;-84
2022/09/20 14:31:46;;;;;;;0.50;0.30;;;;;;;;;;5053069;28;20029;-82
2022/09/20 14:34:12;;;;;;;0.90;0.50;;;;;;;;;;5046806;28;20042;-82
2022/09/20 14:36:39;;;;;;;2.13;1.30;;;;;;;;;;5033160;28;20057;-81
2022/09/20 14:39:12;;;;;;;2.38;1.27;;;;;;;;;;5032925;28;20064;-81
2022/09/20 14:41:39;;;;;;;1.70;0.77;;;;;;;;;;5032974;28;20117;-80
2022/09/20 14:44:09;;;;;;;0.60;0.40;;;;;;;;;;5032397;28;20329;-79
2022/09/20 14:46:37;;;;;;;3.80;1.55;;;;;;;;;;5032963;28;20088;-79
2022/09/20 14:49:30;;;;;;;1.50;0.55;;;;;;;;;;5032694;28;20033;-80
2022/09/20 14:52:15;;;;;;;2.80;0.57;;;;;;;;;;5030285;28;20116;-83
2022/09/20 14:54:41;;;;;;;0.73;0.30;;;;;;;;;;5032914;28;20053;-80
2022/09/20 14:57:08;;;;;;;1.20;0.40;;;;;;;;;;5032727;28;20033;-80
2022/09/20 14:59:53;;;;;;;1.27;0.60;;;;;;;;;;5032781;28;20030;-80
2022/09/20 15:02:20;;;;;;;0.80;0.30;;;;;;;;;;5032629;28;20034;-79
2022/09/20 15:04:54;;;;;;;0.60;0.40;;;;;;;;;;5032831;28;20025;-81
2022/09/20 15:07:20;;;;;;;2.60;0.30;;;;;;;;;;5032799;28;20037;-80
2022/09/20 15:09:46;;;;;;;1.17;0.45;;;;;;;;;;5032851;28;20029;-82
2022/09/20 15:12:14;;;;;;;1.02;0.68;;;;;;;;;;5032612;28;20064;-80
2022/09/20 15:14:41;;;;;;;2.15;0.63;;;;;;;;;;5032757;28;20040;-81
2022/09/20 15:17:10;;;;;;;0.30;0.30;;;;;;;;;;5032029;28;20029;-80
2022/09/20 15:19:37;;;;;;;0.88;0.40;;;;;;;;;;5032280;28;20519;-82
2022/09/20 15:22:03;;;;;;;0.80;0.30;;;;;;;;;;5032059;28;20084;-82
2022/09/20 15:24:31;;;;;;;1.40;0.73;;;;;;;;;;5032820;28;20480;-80
2022/09/20 15:26:57;;;;;;;0.90;0.60;;;;;;;;;;5032269;28;20030;-80
2022/09/20 15:29:23;;;;;;;1.08;0.40;;;;;;;;;;5032285;28;20025;-79
2022/09/20 15:31:49;;;;;;;0.80;0.47;;;;;;;;;;5032390;28;20103;-80
2022/09/20 15:34:16;;;;;;;0.82;0.40;;;;;;;;;;5032368;28;20044;-81